Latest Weather Observations for Williamson

IDQ60801

Issued at 9:12 pm EST Wednesday 14 November 2018 (issued every 10 minutes, with the page automatically refreshed every 10 minutes)

About weather observations | Map of weather stations | Latest weather observations for QLD | Other Formats
Station Details ID: 033195 Name: WILLIAMSON Lat: -22.47 Lon: 150.18 Height: 27.6 m
Data from the previous 72 hours. | See also: Recent months at Williamson
Date/Time
EST
Temp
°C
App
Temp
°C
Dew
Point
°C
Rel
Hum
%
Delta-T
°C
Wind Press
QNH
hPa
Press
MSL
hPa
Rain since
9am
mm
Dir  Spd
km/h
Gust
km/h
Spd
kts
Gust
kts
14/09:00pm 23.6 24.6 18.7 74 3.1 E 11 17 6 9 1016.7 1016.5 0.0
14/08:30pm 23.7 25.1 18.6 73 3.2 E 9 15 5 8 1016.6 1016.4 0.0
14/08:00pm 23.8 25.1 18.4 72 3.4 E 9 17 5 9 1016.2 1016.0 0.0
14/07:30pm 24.0 25.2 18.2 70 3.6 E 9 15 5 8 1016.0 1015.8 0.0
14/07:00pm 24.3 25.9 18.2 68 3.8 E 7 13 4 7 1015.8 1015.6 0.0
14/06:30pm 24.7 26.4 18.4 68 4.0 ENE 7 13 4 7 1015.4 1015.2 0.0
14/06:00pm 25.3 25.6 18.0 64 4.6 ENE 13 22 7 12 1015.2 1015.0 0.0
14/05:30pm 26.0 25.4 17.6 60 5.3 NE 17 26 9 14 1014.9 1014.7 0.0
14/05:00pm 26.6 26.4 17.7 58 5.6 ENE 15 22 8 12 1014.6 1014.4 0.0
14/04:30pm 27.1 26.0 17.3 55 6.1 NE 19 28 10 15 1014.3 1014.1 0.0
14/04:00pm 27.8 27.5 18.2 56 6.1 NE 17 24 9 13 1013.9 1013.7 0.0
14/03:30pm 27.4 26.6 18.1 57 5.9 NNE 19 32 10 17 1013.8 1013.6 0.0
14/03:00pm 28.1 26.7 17.0 51 7.0 NNE 20 35 11 19 1013.7 1013.5 0.0
14/02:30pm 27.5 26.5 16.5 51 6.8 NNE 17 30 9 16 1013.9 1013.7 0.0
14/02:00pm 28.1 26.8 15.7 46 7.6 NE 17 26 9 14 1013.9 1013.7 0.0
14/01:30pm 29.5 27.6 15.2 41 8.8 NE 19 28 10 15 1014.1 1013.9 0.0
14/01:00pm 29.7 27.6 14.7 40 9.1 NE 19 41 10 22 1014.2 1014.0 0.0
14/12:30pm 29.8 27.5 14.7 39 9.2 NNE 20 33 11 18 1014.4 1014.2 0.0
14/12:00pm 29.3 27.2 14.7 41 8.9 NE 19 28 10 15 1014.8 1014.6 0.0
14/11:30am 29.3 27.2 14.7 41 8.9 ENE 19 30 10 16 1015.2 1015.0 0.0
14/11:00am 29.0 27.9 15.2 43 8.4 E 15 30 8 16 1015.6 1015.4 0.0
14/10:30am 28.7 27.7 15.6 45 8.1 NE 15 28 8 15 1016.1 1015.9 0.0
14/10:00am 28.9 27.8 15.4 44 8.3 ENE 15 20 8 11 1016.4 1016.2 0.0
14/09:30am 28.9 28.5 16.1 46 7.9 NE 13 22 7 12 1016.6 1016.4 0.0
14/09:00am 27.0 26.6 16.3 52 6.6 ENE 13 24 7 13 1016.6 1016.4 0.0
14/08:30am 26.5 25.9 16.7 55 6.1 NE 15 22 8 12 1016.6 1016.4 0.0
14/08:00am 25.5 25.2 17.4 61 5.1 NE 15 24 8 13 1016.4 1016.2 0.0
14/07:30am 25.9 26.8 18.3 63 4.8 ENE 11 20 6 11 1016.4 1016.2 0.0
14/07:00am 24.0 25.4 18.6 72 3.4 SSW 9 13 5 7 1016.4 1016.2 0.0
14/06:30am 23.2 25.0 18.3 74 3.1 SSW 6 11 3 6 1016.4 1016.2 0.0
14/06:00am 23.5 26.3 18.8 75 3.0 ESE 2 7 1 4 1015.9 1015.7 0.0
14/05:30am 22.5 25.5 18.5 78 2.5 CALM 0 0 0 0 1015.3 1015.1 0.0
14/05:00am 22.3 25.3 18.5 79 2.4 CALM 0 6 0 3 1014.7 1014.5 0.0
14/04:30am 22.3 24.1 18.3 78 2.5 E 6 9 3 5 1014.5 1014.3 0.0
14/04:00am 22.5 24.1 18.3 77 2.6 E 7 13 4 7 1014.1 1013.9 0.0
14/03:30am 22.7 24.3 18.3 76 2.8 ESE 7 13 4 7 1014.1 1013.9 0.0
14/03:00am 22.6 23.9 18.4 77 2.6 ESE 9 15 5 8 1014.2 1014.0 0.0
14/02:30am 22.9 23.9 18.7 77 2.7 ESE 11 20 6 11 1014.2 1014.0 0.0
14/02:00am 23.0 23.6 18.5 76 2.8 ESE 13 17 7 9 1014.4 1014.2 0.0
14/01:30am 23.1 23.8 18.8 77 2.7 ESE 13 20 7 11 1014.3 1014.1 0.0
14/01:00am 23.0 23.6 18.5 76 2.8 ESE 13 19 7 10 1014.6 1014.4 0.0
14/12:30am 23.1 23.7 18.6 76 2.8 ESE 13 19 7 10 1015.1 1014.9 0.0
14/12:00am 23.4 24.9 18.9 76 2.9 ESE 9 19 5 10 1015.3 1015.1 0.0
 
Date/Time
EST
Temp
°C
App
Temp
°C
Dew
Point
°C
Rel
Hum
%
Delta-T
°C
Wind Press
QNH
hPa
Press
MSL
hPa
Rain since
9am
mm
Dir  Spd
km/h
Gust
km/h
Spd
kts
Gust
kts
13/11:30pm 23.3 24.8 18.8 76 2.9 ESE 9 17 5 9 1015.5 1015.3 0.0
13/11:00pm 23.3 24.3 18.6 75 3.0 ESE 11 20 6 11 1015.7 1015.5 0.0
13/10:30pm 23.4 24.8 18.7 75 3.0 ESE 9 22 5 12 1015.8 1015.6 0.0
13/10:00pm 23.2 24.4 18.3 74 3.1 ESE 9 17 5 9 1015.7 1015.5 0.0
13/09:30pm 23.2 24.0 18.1 73 3.2 ESE 11 20 6 11 1015.5 1015.3 0.0
13/09:00pm 23.1 24.3 18.2 74 3.1 E 9 17 5 9 1015.3 1015.1 0.0
13/08:30pm 23.3 23.6 18.0 72 3.3 ESE 13 24 7 13 1015.3 1015.1 0.0
13/08:00pm 23.4 23.6 17.6 70 3.6 ESE 13 22 7 12 1015.0 1014.8 0.0
13/07:30pm 23.8 23.8 17.1 66 4.1 E 13 20 7 11 1014.8 1014.6 0.0
13/07:00pm 24.3 24.6 17.1 64 4.5 E 11 20 6 11 1014.6 1014.4 0.0
13/06:30pm 24.8 24.3 17.0 62 4.8 E 15 24 8 13 1014.5 1014.3 0.0
13/06:00pm 25.4 25.2 16.8 59 5.3 E 13 26 7 14 1014.2 1014.0 0.0
13/05:30pm 26.3 24.7 16.0 53 6.3 E 19 32 10 17 1013.7 1013.5 0.0
13/05:00pm 26.6 24.9 16.2 52 6.4 E 20 37 11 20 1013.3 1013.1 0.0
13/04:30pm 27.3 26.0 16.9 53 6.5 E 19 33 10 18 1013.0 1012.8 0.0
13/04:00pm 28.2 27.0 17.1 51 7.0 E 19 33 10 18 1012.9 1012.7 0.0
13/03:30pm 28.8 26.6 16.0 45 7.9 E 22 37 12 20 1012.8 1012.6 0.0
13/03:00pm 28.9 26.2 16.5 47 7.7 ENE 26 43 14 23 1012.9 1012.7 0.0
13/02:30pm 29.2 27.3 15.7 44 8.3 E 20 35 11 19 1013.1 1012.9 0.0
13/02:00pm 29.4 28.1 16.9 47 7.9 ENE 19 32 10 17 1013.4 1013.2 0.0
13/01:30pm 29.5 27.3 16.0 44 8.4 E 22 37 12 20 1013.6 1013.4 0.0
13/01:00pm 29.1 27.3 16.0 45 8.1 ENE 20 41 11 22 1014.0 1013.8 0.0
13/12:30pm 29.6 27.4 15.0 41 8.9 SE 20 33 11 18 1014.4 1014.2 0.0
13/12:00pm 29.2 26.9 14.2 40 9.0 ESE 19 30 10 16 1014.9 1014.7 0.0
13/11:30am 29.0 26.9 14.8 42 8.6 E 19 32 10 17 1015.3 1015.1 0.0
13/11:00am 28.2 26.4 14.4 42 8.3 E 17 28 9 15 1015.6 1015.4 0.0
13/10:30am 28.7 26.8 15.2 43 8.2 E 19 32 10 17 1015.9 1015.7 0.0
13/10:00am 27.5 26.2 15.8 48 7.2 SE 17 26 9 14 1016.1 1015.9 0.0
13/09:30am 27.4 26.6 16.1 50 7.0 ESE 15 28 8 15 1016.4 1016.2 0.0
13/09:00am 26.4 26.3 16.1 53 6.3 SE 11 26 6 14 1016.7 1016.5 0.0
13/08:30am 26.5 25.3 16.1 52 6.4 S 17 28 9 15 1017.0 1016.8 0.0
13/08:00am 24.6 24.2 16.1 59 5.2 S 13 26 7 14 1017.2 1017.0 0.0
13/07:30am 23.7 23.4 15.5 60 4.9 SSE 11 22 6 12 1017.2 1017.0 0.0
13/07:00am 22.3 21.2 15.4 65 4.1 S 15 20 8 11 1017.1 1016.9 0.0
13/06:30am 21.0 20.3 15.5 71 3.3 SSW 13 20 7 11 1016.8 1016.6 0.0
13/06:00am 20.1 19.5 15.7 76 2.6 S 13 20 7 11 1016.2 1016.0 0.0
13/05:30am 19.2 19.5 16.1 82 1.9 SSW 9 13 5 7 1016.1 1015.9 0.0
13/05:00am 19.0 19.7 16.0 83 1.8 SSE 7 11 4 6 1015.7 1015.5 0.0
13/04:30am 19.2 19.9 16.2 83 1.8 S 7 15 4 8 1015.7 1015.5 0.0
13/04:00am 19.0 19.3 16.0 83 1.8 S 9 11 5 6 1015.3 1015.1 0.0
13/03:30am 19.1 19.7 15.4 79 2.2 SSE 6 9 3 5 1015.4 1015.2 0.0
13/03:00am 19.4 20.5 15.5 78 2.3 W 4 7 2 4 1015.3 1015.1 0.0
13/02:30am 21.0 22.5 16.6 76 2.7 SSE 4 9 2 5 1015.5 1015.3 0.0
13/02:00am 21.3 22.4 16.5 74 2.9 SSW 6 9 3 5 1015.5 1015.3 0.0
13/01:30am 21.9 23.3 16.4 71 3.3 S 4 7 2 4 1015.7 1015.5 0.0
13/01:00am 22.6 23.6 16.4 68 3.8 SSE 6 11 3 6 1015.9 1015.7 0.0
13/12:30am 22.7 23.7 16.3 67 3.9 S 6 9 3 5 1016.1 1015.9 0.0
13/12:00am 23.0 23.8 16.3 66 4.1 S 7 11 4 6 1016.5 1016.3 0.0
 
Date/Time
EST
Temp
°C
App
Temp
°C
Dew
Point
°C
Rel
Hum
%
Delta-T
°C
Wind Press
QNH
hPa
Press
MSL
hPa
Rain since
9am
mm
Dir  Spd
km/h
Gust
km/h
Spd
kts
Gust
kts
12/11:30pm 23.0 23.4 16.3 66 4.1 SE 9 17 5 9 1016.8 1016.6 0.0
12/11:00pm 23.1 23.4 15.9 64 4.3 ESE 9 17 5 9 1017.1 1016.9 0.0
12/10:30pm 23.2 23.0 15.8 63 4.5 ESE 11 19 6 10 1017.2 1017.0 0.0
12/10:00pm 23.3 22.6 15.4 61 4.7 SE 13 22 7 12 1017.3 1017.1 0.0
12/09:30pm 23.0 23.5 15.6 63 4.4 ESE 7 13 4 7 1017.2 1017.0 0.0
12/09:00pm 23.3 22.6 15.4 61 4.7 ESE 13 20 7 11 1016.9 1016.7 0.0
12/08:30pm 23.1 22.9 15.7 63 4.5 ESE 11 20 6 11 1016.5 1016.3 0.0
12/08:00pm 23.1 22.4 15.4 62 4.6 E 13 22 7 12 1016.4 1016.2 0.0
12/07:30pm 23.3 21.5 15.4 61 4.7 E 19 30 10 16 1016.2 1016.0 0.0
12/07:00pm 23.6 22.2 14.6 57 5.3 E 15 30 8 16 1015.9 1015.7 0.0
12/06:30pm 24.0 22.2 14.4 55 5.7 E 17 33 9 18 1015.5 1015.3 0.0
12/06:00pm 24.6 22.3 14.1 52 6.2 E 19 28 10 15 1015.1 1014.9 0.0
12/05:30pm 25.5 23.0 13.4 47 7.1 ENE 19 30 10 16 1014.7 1014.5 0.0
12/05:00pm 26.6 24.0 13.7 45 7.6 ENE 20 35 11 19 1014.2 1014.0 0.0
12/04:30pm 26.9 24.4 14.0 45 7.7 NE 20 37 11 20 1013.8 1013.6 0.0
12/04:00pm 28.3 25.4 12.2 37 9.4 E 19 32 10 17 1013.7 1013.5 0.0
12/03:30pm 29.9 25.6 7.2 24 12.3 ESE 19 33 10 18 1013.6 1013.4 0.0
12/03:00pm 29.2 26.4 12.6 36 9.8 E 19 33 10 18 1013.7 1013.5 0.0
12/02:30pm 29.1 25.8 12.9 37 9.6 ENE 22 39 12 21 1014.2 1014.0 0.0
12/02:00pm 29.4 25.8 11.9 34 10.2 E 22 37 12 20 1014.3 1014.1 0.0
12/01:30pm 29.8 27.0 13.1 36 9.9 ENE 20 35 11 19 1014.6 1014.4 0.0
12/01:00pm 30.4 27.5 12.8 34 10.4 ENE 20 37 11 20 1015.1 1014.9 0.0
12/12:30pm 28.7 25.3 12.6 37 9.4 E 22 39 12 21 1015.7 1015.5 0.0
12/12:00pm 28.8 26.0 13.1 38 9.3 ENE 20 32 11 17 1016.2 1016.0 0.0
12/11:30am 29.7 26.9 12.6 35 10.1 ENE 19 32 10 17 1016.5 1016.3 0.0
12/11:00am 30.2 27.1 10.2 29 11.3 E 17 28 9 15 1017.0 1016.8 0.0
12/10:30am 29.0 25.5 10.2 31 10.6 E 19 33 10 18 1017.4 1017.2 0.0
12/10:00am 29.0 26.4 10.6 32 10.4 ENE 15 26 8 14 1017.7 1017.5 0.0
12/09:30am 28.1 24.1 10.3 33 10.0 ESE 22 35 12 19 1018.0 1017.8 0.0
12/09:00am 27.6 23.6 9.0 31 10.2 SE 20 33 11 18 1018.3 1018.1 0.0
12/08:30am 26.6 24.2 12.6 42 8.1 ESE 17 32 9 17 1018.2 1018.0 0.0
12/08:00am 26.4 24.3 13.5 45 7.6 ESE 17 30 9 16 1018.0 1017.8 0.0
12/07:30am 25.5 24.0 15.2 53 6.2 ESE 17 26 9 14 1017.9 1017.7 0.0
12/07:00am 24.8 24.1 16.5 60 5.1 ESE 15 24 8 13 1017.7 1017.5 0.0
12/06:30am 24.0 23.5 16.8 64 4.4 ESE 15 24 8 13 1017.3 1017.1 0.0
12/06:00am 22.3 23.3 16.3 69 3.6 SSE 6 9 3 5 1016.9 1016.7 0.0
12/05:30am 22.5 23.0 16.5 69 3.7 SE 9 15 5 8 1016.8 1016.6 0.0
12/05:00am 22.3 23.2 16.6 70 3.5 ESE 7 11 4 6 1016.2 1016.0 0.0
12/04:30am 22.3 22.3 16.3 69 3.6 ESE 11 17 6 9 1015.9 1015.7 0.0
12/04:00am 22.6 22.6 16.2 67 3.9 ESE 11 19 6 10 1015.9 1015.7 0.0
12/03:30am 22.6 22.7 16.4 68 3.8 ESE 11 22 6 12 1015.8 1015.6 0.0
12/03:00am 22.6 22.2 16.2 67 3.9 ESE 13 20 7 11 1015.9 1015.7 0.0
12/02:30am 22.6 22.7 16.4 68 3.8 E 11 20 6 11 1015.9 1015.7 0.0
12/02:00am 22.8 22.6 16.6 68 3.8 E 13 22 7 12 1016.2 1016.0 0.0
12/01:30am 22.9 22.3 16.7 68 3.8 ESE 15 24 8 13 1016.4 1016.2 0.0
12/01:00am 23.0 22.7 16.5 67 4.0 ESE 13 22 7 12 1016.8 1016.6 0.0
12/12:30am 22.9 23.1 16.7 68 3.8 ESE 11 19 6 10 1017.0 1016.8 0.0
12/12:00am 23.0 23.0 17.2 70 3.6 ESE 13 20 7 11 1017.3 1017.1 0.0
 
Date/Time
EST
Temp
°C
App
Temp
°C
Dew
Point
°C
Rel
Hum
%
Delta-T
°C
Wind Press
QNH
hPa
Press
MSL
hPa
Rain since
9am
mm
Dir  Spd
km/h
Gust
km/h
Spd
kts
Gust
kts
11/11:30pm 23.1 23.7 17.8 72 3.3 ESE 11 20 6 11 1017.7 1017.5 0.0
11/11:00pm 23.3 23.7 18.2 73 3.2 ESE 13 22 7 12 1017.9 1017.7 0.0
11/10:30pm 23.4 24.2 18.1 72 3.3 E 11 20 6 11 1018.0 1017.8 0.0
11/10:00pm 23.4 23.3 17.8 71 3.5 ESE 15 24 8 13 1018.0 1017.8 0.0
11/09:30pm 23.4 23.4 18.1 72 3.3 ESE 15 24 8 13 1017.8 1017.6 0.0

Other Formats:

Comma delimited format used in spreadsheet applications
http://www.bom.gov.au/fwo/IDQ60801/IDQ60801.95370.axf

JavaScript Object Notation format (JSON) in row-major order
http://www.bom.gov.au/fwo/IDQ60801/IDQ60801.95370.json